SBKP/CPQ METAR and TAF weather

Enter ICAO airport designator
Station Type Date Time Source
SBKP METAR 2021/05/11 00:00 UTC NOAA

SBKP 110000Z 13005KT CAVOK 19/13 Q1020


Station Type Date Time Source
SBKP Decoded METAR 2021/05/11 00:00 UTC NOAA

Campinas Aeroporto , Brazil (SBKP) 23-00S 047-08W 661M
May 10, 2021 - 08:00 PM EDT / 2021.05.11 0000 UTC
Wind: from the SE (130 degrees) at 6 MPH (5 KT):0
Visibility: greater than 7 mile(s):0
Temperature: 66 F (19 C)
Dew Point: 55 F (13 C)
Relative Humidity: 68%
Pressure (altimeter): 30.12 in. Hg (1020 hPa)
ob: SBKP 110000Z 13005KT CAVOK 19/13 Q1020
cycle: 0

Station Type Date Time Source
SBKP TAF 2021/05/11 06:27 UTC NOAA

TAF SBKP 110000Z 1106/1206 12005KT 8000 NSC TN14/1109Z TX26/1117Z
BECMG 1107/1109 10005KT PROB30 1109/1111 5000 BR NSC
BECMG 1113/1115 35007KT 8000 SCT040
BECMG 1118/1120 22007KT FEW045
BECMG 1122/1124 13007KT
BECMG 1201/1203 11007KT
RMK PHG

Example: see airport list